createdAt,value
2018-07-23T00:01:22.636Z,8.15
2018-07-23T00:03:50.695Z,13.05
2018-07-23T00:06:18.731Z,11.15
2018-07-23T00:08:46.816Z,8.45
2018-07-23T00:11:14.882Z,8.53
2018-07-23T00:13:42.961Z,6.85
2018-07-23T00:16:10.976Z,8.33
2018-07-23T00:18:39.085Z,7.05
2018-07-23T00:21:07.144Z,6.53
2018-07-23T00:23:35.168Z,6.60
2018-07-23T00:26:03.199Z,8.65
2018-07-23T00:28:31.232Z,7.22
2018-07-23T00:30:59.281Z,7.65
2018-07-23T00:33:27.312Z,6.80
2018-07-23T00:35:55.355Z,6.62
2018-07-23T00:38:23.395Z,4.55
2018-07-23T00:40:51.422Z,7.35
2018-07-23T00:43:19.474Z,5.83
2018-07-23T00:45:47.508Z,5.53
2018-07-23T00:48:15.548Z,6.55
2018-07-23T00:50:43.571Z,7.85
2018-07-23T00:53:11.616Z,4.92
2018-07-23T00:55:39.639Z,6.85
2018-07-23T00:58:07.671Z,7.62
2018-07-23T01:00:35.696Z,5.35
2018-07-23T01:03:05.656Z,7.72
2018-07-23T01:05:34.248Z,5.15
2018-07-23T01:08:02.296Z,6.30
2018-07-23T01:10:30.351Z,5.30
2018-07-23T01:12:58.403Z,6.72
2018-07-23T01:15:26.432Z,4.95
2018-07-23T01:17:54.471Z,7.65
2018-07-23T01:20:22.531Z,8.75
2018-07-23T01:22:50.568Z,5.60
2018-07-23T01:25:18.592Z,8.10
2018-07-23T01:27:46.628Z,6.12
2018-07-23T01:30:14.654Z,6.35
2018-07-23T01:32:42.712Z,7.42
2018-07-23T01:35:10.752Z,6.80
2018-07-23T01:37:38.784Z,6.33
2018-07-23T01:40:06.825Z,6.12
2018-07-23T01:42:34.875Z,4.83
2018-07-23T01:45:02.919Z,6.72
2018-07-23T01:47:30.940Z,5.70
2018-07-23T01:49:58.976Z,7.42
2018-07-23T01:52:27.028Z,5.05
2018-07-23T01:54:55.175Z,10.05
2018-07-23T01:57:23.196Z,7.17
2018-07-23T01:59:51.228Z,5.80
2018-07-23T02:02:19.256Z,10.50
2018-07-23T02:04:47.328Z,5.50
2018-07-23T02:07:15.376Z,7.25
2018-07-23T02:09:43.742Z,5.53
2018-07-23T02:12:11.800Z,6.72
2018-07-23T02:14:39.832Z,4.97
2018-07-23T02:17:07.860Z,5.47
2018-07-23T02:19:35.900Z,5.58
2018-07-23T02:22:03.936Z,5.40
2018-07-23T02:24:31.983Z,6.58
2018-07-23T02:27:00.040Z,6.42
2018-07-23T02:29:28.096Z,7.83
2018-07-23T02:31:56.129Z,9.55
2018-07-23T02:34:24.168Z,5.08
2018-07-23T02:36:52.196Z,5.90
2018-07-23T02:39:20.283Z,6.00
2018-07-23T02:41:48.307Z,8.93
2018-07-23T02:44:16.355Z,9.15
2018-07-23T02:46:44.380Z,10.88
2018-07-23T02:49:12.444Z,9.28
2018-07-23T02:51:40.463Z,7.03
2018-07-23T02:54:08.496Z,5.72
2018-07-23T02:56:36.551Z,6.78
2018-07-23T02:59:04.608Z,11.53
2018-07-23T03:01:32.659Z,9.50
2018-07-23T03:04:00.728Z,8.95
2018-07-23T03:06:29.736Z,8.83
2018-07-23T03:08:58.060Z,9.18
2018-07-23T03:11:26.462Z,7.72
2018-07-23T03:13:54.508Z,10.10
2018-07-23T03:16:22.563Z,7.60
2018-07-23T03:18:51.200Z,8.58
2018-07-23T03:21:19.230Z,6.55
2018-07-23T03:23:47.267Z,7.70
2018-07-23T03:26:15.320Z,9.00
2018-07-23T03:28:43.367Z,7.15
2018-07-23T03:31:11.416Z,7.28
2018-07-23T03:33:39.464Z,6.80
2018-07-23T03:36:07.517Z,8.03
2018-07-23T03:38:35.552Z,7.97
2018-07-23T03:41:03.623Z,6.90
2018-07-23T03:43:31.644Z,8.55
2018-07-23T03:45:59.707Z,8.98
2018-07-23T03:48:27.744Z,8.70
2018-07-23T03:50:55.833Z,7.62
2018-07-23T03:53:23.855Z,9.38
2018-07-23T03:55:51.900Z,10.10
2018-07-23T03:58:19.935Z,7.50
2018-07-23T04:00:47.977Z,7.17
2018-07-23T04:03:16.018Z,7.85
2018-07-23T04:05:44.080Z,6.60
2018-07-23T04:08:12.116Z,6.95
2018-07-23T04:10:40.281Z,7.60
2018-07-23T04:13:08.340Z,5.55
2018-07-23T04:15:36.384Z,8.23
2018-07-23T04:18:04.909Z,6.85
2018-07-23T04:20:35.490Z,8.63
2018-07-23T04:23:04.528Z,8.33
2018-07-23T04:25:32.584Z,7.45
2018-07-23T04:28:01.117Z,10.13
2018-07-23T04:30:29.388Z,6.33
2018-07-23T04:32:57.696Z,10.40
2018-07-23T04:35:25.760Z,8.90
2018-07-23T04:37:53.851Z,10.65
2018-07-23T04:40:21.844Z,6.42
2018-07-23T04:42:49.867Z,6.60
2018-07-23T04:45:17.904Z,9.03
2018-07-23T04:47:45.935Z,9.23
2018-07-23T04:50:13.991Z,8.30
2018-07-23T04:52:42.016Z,8.28
2018-07-23T04:55:10.104Z,11.10
2018-07-23T04:57:38.137Z,11.57
2018-07-23T05:00:06.204Z,11.53
2018-07-23T05:02:34.236Z,10.20
2018-07-23T05:05:02.356Z,10.40
2018-07-23T05:07:30.388Z,11.78
2018-07-23T05:09:58.420Z,8.35
2018-07-23T05:12:26.688Z,9.53
2018-07-23T05:14:54.716Z,10.70
2018-07-23T05:17:22.753Z,8.45
2018-07-23T05:19:50.773Z,9.35
2018-07-23T05:22:18.836Z,10.95
2018-07-23T05:24:46.883Z,12.33
2018-07-23T05:27:14.928Z,14.00
2018-07-23T05:29:42.966Z,9.68
2018-07-23T05:32:11.129Z,12.00
2018-07-23T05:34:39.164Z,13.38
2018-07-23T05:37:07.227Z,6.65
2018-07-23T05:39:35.252Z,12.80
2018-07-23T05:42:03.297Z,14.13
2018-07-23T05:44:31.338Z,10.38
2018-07-23T05:46:59.372Z,9.38
2018-07-23T05:49:27.404Z,10.05
2018-07-23T05:51:55.463Z,15.55
2018-07-23T05:54:23.492Z,14.45
2018-07-23T05:56:51.540Z,12.82
2018-07-23T05:59:19.896Z,10.85
2018-07-23T06:01:47.936Z,7.50
2018-07-23T06:04:16.040Z,10.98
2018-07-23T06:06:44.162Z,7.40
2018-07-23T06:09:12.179Z,7.10
2018-07-23T06:11:40.243Z,12.23
2018-07-23T06:14:08.285Z,7.55
2018-07-23T06:16:36.328Z,8.38
2018-07-23T06:19:04.364Z,5.65
2018-07-23T06:21:32.459Z,8.95
2018-07-23T06:24:00.485Z,8.58
2018-07-23T06:26:28.541Z,6.55
2018-07-23T06:28:56.575Z,7.85
2018-07-23T06:31:24.615Z,7.08
2018-07-23T06:33:52.712Z,9.75
2018-07-23T06:36:20.765Z,9.13
2018-07-23T06:38:48.824Z,11.78
2018-07-23T06:41:16.864Z,11.35
2018-07-23T06:43:44.909Z,9.55
2018-07-23T06:46:12.970Z,10.75
2018-07-23T06:48:41.007Z,11.48
2018-07-23T06:51:09.095Z,14.18
2018-07-23T06:53:37.139Z,10.08
2018-07-23T06:56:05.399Z,8.55
2018-07-23T06:58:33.543Z,8.98
2018-07-23T07:01:01.592Z,11.53
2018-07-23T07:03:29.676Z,12.00
2018-07-23T07:05:57.724Z,13.83
2018-07-23T07:08:25.777Z,13.70
2018-07-23T07:10:53.854Z,14.15
2018-07-23T07:13:21.892Z,13.98
2018-07-23T07:15:49.959Z,16.40
2018-07-23T07:18:18.011Z,11.78
2018-07-23T07:20:46.058Z,19.50
2018-07-23T07:23:14.105Z,12.75
2018-07-23T07:25:42.163Z,16.32
2018-07-23T07:28:10.215Z,11.68
2018-07-23T07:30:38.256Z,10.82
2018-07-23T07:33:06.580Z,20.45
2018-07-23T07:35:34.620Z,18.70
2018-07-23T07:38:02.710Z,17.32
2018-07-23T07:40:30.761Z,19.30
2018-07-23T07:42:58.808Z,13.95
2018-07-23T07:45:26.842Z,15.80
2018-07-23T07:47:54.891Z,14.95
2018-07-23T07:50:22.925Z,14.07
2018-07-23T07:52:50.973Z,13.00
2018-07-23T07:55:19.031Z,14.28
2018-07-23T07:57:47.096Z,21.62
2018-07-23T08:00:15.147Z,19.73
2018-07-23T08:02:43.219Z,21.25
2018-07-23T08:05:11.296Z,18.95
2018-07-23T08:07:39.359Z,24.50
2018-07-23T08:10:07.452Z,17.85
2018-07-23T08:12:35.575Z,12.60
2018-07-23T08:15:03.615Z,18.37
2018-07-23T08:17:31.668Z,19.48
2018-07-23T08:19:59.716Z,20.60
2018-07-23T08:22:27.774Z,23.47
2018-07-23T08:24:55.820Z,27.30
2018-07-23T08:27:23.909Z,21.40
2018-07-23T08:29:51.940Z,19.15
2018-07-23T08:32:20.080Z,22.00
2018-07-23T08:34:48.112Z,19.77
2018-07-23T08:37:16.237Z,15.35
2018-07-23T08:39:44.273Z,24.60
2018-07-23T08:42:12.309Z,17.20
2018-07-23T08:44:40.372Z,28.70
2018-07-23T08:47:08.457Z,24.35
2018-07-23T08:49:36.505Z,23.70
2018-07-23T08:52:04.571Z,21.00
2018-07-23T08:54:32.642Z,23.55
2018-07-23T08:57:00.682Z,33.53
2018-07-23T08:59:28.721Z,24.02
2018-07-23T09:01:56.759Z,26.57
2018-07-23T09:04:24.873Z,24.20
2018-07-23T09:06:53.120Z,26.37
2018-07-23T09:09:21.195Z,40.85
2018-07-23T09:11:49.259Z,28.92
2018-07-23T09:14:17.307Z,21.20
2018-07-23T09:16:45.339Z,28.70
2018-07-23T09:19:13.388Z,25.88
2018-07-23T09:21:41.424Z,30.92
2018-07-23T09:24:09.497Z,41.28
2018-07-23T09:26:37.561Z,29.72
2018-07-23T09:29:05.632Z,36.48
2018-07-23T09:31:33.660Z,30.72
2018-07-23T09:34:01.701Z,32.17
2018-07-23T09:36:29.728Z,39.15
2018-07-23T09:38:57.771Z,53.75
2018-07-23T09:41:25.843Z,53.55
2018-07-23T09:43:53.912Z,54.85
2018-07-23T09:46:21.956Z,50.05
2018-07-23T09:48:50.009Z,63.13
2018-07-23T09:51:18.051Z,56.40
2018-07-23T09:53:46.128Z,63.58
2018-07-23T09:56:14.181Z,59.38
2018-07-23T09:58:42.236Z,70.17
2018-07-23T10:01:13.319Z,43.75
2018-07-23T10:03:42.298Z,60.23
2018-07-23T10:06:10.299Z,55.73
2018-07-23T10:08:38.361Z,45.40
2018-07-23T10:11:06.632Z,77.17
2018-07-23T10:13:34.691Z,62.55
2018-07-23T10:16:02.740Z,53.50
2018-07-23T10:18:30.800Z,49.27
2018-07-23T10:20:58.832Z,55.00
2018-07-23T10:23:26.948Z,56.27
2018-07-23T10:25:54.985Z,80.80
2018-07-23T10:28:23.048Z,77.83
2018-07-23T10:30:51.120Z,56.83
2018-07-23T10:33:19.163Z,89.90
2018-07-23T10:35:47.217Z,92.43
2018-07-23T10:38:15.348Z,88.57
2018-07-23T10:40:43.423Z,96.17
2018-07-23T10:43:11.476Z,97.57
2018-07-23T10:45:39.519Z,64.93
2018-07-23T10:48:07.639Z,70.17
2018-07-23T10:50:35.711Z,92.37
2018-07-23T10:53:03.787Z,103.87
2018-07-23T10:55:31.823Z,62.50
2018-07-23T10:57:59.868Z,76.40
2018-07-23T11:00:27.912Z,74.10
2018-07-23T11:02:55.972Z,126.03
2018-07-23T11:05:24.029Z,79.50
2018-07-23T11:07:52.104Z,120.20
2018-07-23T11:10:20.155Z,101.63
2018-07-23T11:12:48.260Z,78.90
2018-07-23T11:15:16.283Z,78.07
2018-07-23T11:17:44.326Z,66.93
2018-07-23T11:20:13.005Z,76.90
2018-07-23T11:22:41.500Z,63.73
2018-07-23T11:25:38.702Z,55.90
2018-07-23T11:27:37.612Z,80.17
2018-07-23T11:30:05.876Z,82.60
2018-07-23T11:32:34.407Z,91.43
2018-07-23T11:35:02.463Z,54.37
2018-07-23T11:37:30.500Z,84.63
2018-07-23T11:39:58.551Z,83.13
2018-07-23T11:42:26.588Z,85.63
2018-07-23T11:44:54.663Z,105.30
2018-07-23T11:47:22.702Z,76.57
2018-07-23T11:49:50.744Z,87.17
2018-07-23T11:52:18.796Z,71.50
2018-07-23T11:54:46.844Z,83.17
2018-07-23T11:57:14.888Z,79.83
2018-07-23T11:59:42.941Z,71.33
2018-07-23T12:02:10.985Z,98.83
2018-07-23T12:04:39.165Z,92.83
2018-07-23T12:07:07.672Z,87.60
2018-07-23T12:09:35.752Z,55.87
2018-07-23T12:12:03.800Z,86.27
2018-07-23T12:14:31.847Z,97.20
2018-07-23T12:16:59.908Z,106.47
2018-07-23T12:19:27.975Z,88.40
2018-07-23T12:21:56.048Z,87.13
2018-07-23T12:24:24.116Z,79.80
2018-07-23T12:26:52.179Z,101.23
2018-07-23T12:29:20.235Z,56.63
2018-07-23T12:31:48.287Z,95.93
2018-07-23T12:34:16.335Z,70.03
2018-07-23T12:36:44.384Z,65.53
2018-07-23T12:39:12.898Z,62.27
2018-07-23T12:41:41.576Z,66.13
2018-07-23T12:44:09.941Z,81.10
2018-07-23T12:46:38.017Z,70.73
2018-07-23T12:49:06.052Z,94.83
2018-07-23T12:51:34.116Z,85.23
2018-07-23T12:54:02.176Z,76.93
2018-07-23T12:56:30.223Z,55.93
2018-07-23T12:58:58.294Z,70.23
2018-07-23T13:01:26.376Z,94.50
2018-07-23T13:03:54.420Z,89.63
2018-07-23T13:06:22.499Z,79.57
2018-07-23T13:08:50.567Z,89.70
2018-07-23T13:11:18.620Z,111.47
2018-07-23T13:13:46.656Z,79.47
2018-07-23T13:16:14.721Z,61.80
2018-07-23T13:18:42.755Z,83.30
2018-07-23T13:21:10.815Z,86.37
2018-07-23T13:23:38.864Z,102.77
2018-07-23T13:26:07.096Z,73.47
2018-07-23T13:28:35.135Z,63.43
2018-07-23T13:31:03.231Z,78.97
2018-07-23T13:33:31.263Z,50.43
2018-07-23T13:35:59.348Z,54.63
2018-07-23T13:38:27.383Z,69.63
2018-07-23T13:40:55.444Z,81.00
2018-07-23T13:43:23.484Z,93.63
2018-07-23T13:45:51.555Z,75.00
2018-07-23T13:48:19.600Z,95.73
2018-07-23T13:50:47.724Z,79.43
2018-07-23T13:53:15.795Z,98.03
2018-07-23T13:55:43.867Z,79.53
2018-07-23T13:58:11.912Z,84.83
2018-07-23T14:00:39.971Z,96.73
2018-07-23T14:03:08.012Z,67.90
2018-07-23T14:05:36.451Z,81.83
2018-07-23T14:08:04.735Z,77.53
2018-07-23T14:10:32.909Z,54.67
2018-07-23T14:13:00.977Z,77.57
2018-07-23T14:15:29.012Z,83.57
2018-07-23T14:17:57.331Z,101.13
2018-07-23T14:20:25.414Z,76.33
2018-07-23T14:22:53.488Z,62.17
2018-07-23T14:25:21.519Z,85.87
2018-07-23T14:27:49.572Z,71.27
2018-07-23T14:30:17.628Z,88.90
2018-07-23T14:32:45.695Z,79.47
2018-07-23T14:35:13.761Z,85.10
2018-07-23T14:37:41.840Z,77.27
2018-07-23T14:40:09.889Z,81.77
2018-07-23T14:42:37.951Z,94.47
2018-07-23T14:45:06.989Z,93.17
2018-07-23T14:47:35.061Z,93.37
2018-07-23T14:50:03.107Z,136.33
2018-07-23T14:52:31.177Z,91.70
2018-07-23T14:54:59.255Z,98.33
2018-07-23T14:57:27.312Z,98.93
2018-07-23T14:59:55.353Z,97.17
2018-07-23T15:02:23.447Z,125.70
2018-07-23T15:04:51.487Z,89.23
2018-07-23T15:07:19.555Z,124.33
2018-07-23T15:09:47.619Z,112.43
2018-07-23T15:12:15.668Z,112.23
2018-07-23T15:14:43.716Z,113.47
2018-07-23T15:17:11.777Z,82.83
2018-07-23T15:19:39.808Z,90.17
2018-07-23T15:22:07.869Z,109.63
2018-07-23T15:24:35.911Z,134.67
2018-07-23T15:27:04.084Z,122.07
2018-07-23T15:29:32.137Z,107.53
2018-07-23T15:32:00.228Z,96.27
2018-07-23T15:34:28.293Z,88.93
2018-07-23T15:36:56.339Z,99.33
2018-07-23T15:39:24.380Z,87.13
2018-07-23T15:41:52.428Z,88.27
2018-07-23T15:44:21.049Z,108.63
2018-07-23T15:46:48.948Z,78.77
2018-07-23T15:49:16.996Z,102.53
2018-07-23T15:51:45.049Z,107.37
2018-07-23T15:54:13.141Z,98.03
2018-07-23T15:56:41.199Z,70.27
2018-07-23T15:59:09.317Z,76.43
2018-07-23T16:01:37.355Z,119.77
2018-07-23T16:04:05.437Z,78.93
2018-07-23T16:06:33.484Z,59.13
2018-07-23T16:09:01.524Z,55.90
2018-07-23T16:11:29.566Z,57.53
2018-07-23T16:13:57.633Z,71.80
2018-07-23T16:16:25.722Z,73.00
2018-07-23T16:18:53.830Z,73.43
2018-07-23T16:21:21.852Z,43.60
2018-07-23T16:23:49.927Z,41.70
2018-07-23T16:26:18.001Z,49.80
2018-07-23T16:28:46.063Z,62.88
2018-07-23T16:31:14.101Z,56.77
2018-07-23T16:33:42.192Z,71.97
2018-07-23T16:36:10.245Z,71.35
2018-07-23T16:38:38.351Z,54.08
2018-07-23T16:41:06.416Z,58.75
2018-07-23T16:43:34.483Z,50.65
2018-07-23T16:46:02.551Z,73.20
2018-07-23T16:48:30.644Z,55.85
2018-07-23T16:50:58.699Z,56.33
2018-07-23T16:53:26.744Z,63.83
2018-07-23T16:55:54.804Z,62.62
2018-07-23T16:58:22.898Z,75.20
2018-07-23T17:00:50.944Z,73.97
2018-07-23T17:03:19.012Z,59.05
2018-07-23T17:05:47.064Z,70.00
2018-07-23T17:08:15.891Z,61.58
2018-07-23T17:10:43.979Z,51.35
2018-07-23T17:13:12.255Z,37.70
2018-07-23T17:15:40.315Z,54.27
2018-07-23T17:18:08.495Z,45.05
2018-07-23T17:20:36.423Z,58.15
2018-07-23T17:23:04.499Z,47.98
2018-07-23T17:25:32.563Z,61.23
2018-07-23T17:28:00.631Z,58.38
2018-07-23T17:30:28.688Z,55.38
2018-07-23T17:32:56.743Z,48.55
2018-07-23T17:35:24.847Z,73.52
2018-07-23T17:37:52.851Z,67.50
2018-07-23T17:40:20.906Z,66.90
2018-07-23T17:42:48.974Z,49.65
2018-07-23T17:45:17.141Z,51.33
2018-07-23T17:47:45.175Z,49.27
2018-07-23T17:50:13.264Z,60.80
2018-07-23T17:52:41.347Z,49.95
2018-07-23T17:55:09.449Z,49.13
2018-07-23T17:57:37.459Z,62.98
2018-07-23T18:00:05.843Z,50.65
2018-07-23T18:02:33.924Z,65.70
2018-07-23T18:05:01.976Z,66.10
2018-07-23T18:07:30.057Z,49.15
2018-07-23T18:09:58.206Z,50.25
2018-07-23T18:12:26.212Z,57.10
2018-07-23T18:14:54.276Z,55.98
2018-07-23T18:17:22.310Z,62.98
2018-07-23T18:19:50.451Z,53.50
2018-07-23T18:22:19.364Z,47.35
2018-07-23T18:24:47.410Z,40.28
2018-07-23T18:27:15.456Z,69.92
2018-07-23T18:29:43.524Z,62.03
2018-07-23T18:32:11.612Z,67.25
2018-07-23T18:34:39.685Z,50.75
2018-07-23T18:37:07.745Z,39.80
2018-07-23T18:39:35.782Z,37.90
2018-07-23T18:42:03.816Z,64.05
2018-07-23T18:44:31.855Z,42.27
2018-07-23T18:46:59.918Z,62.08
2018-07-23T18:49:41.983Z,51.13
2018-07-23T18:52:10.044Z,34.88
2018-07-23T18:54:38.518Z,36.17
2018-07-23T18:57:07.343Z,50.10
2018-07-23T18:59:35.497Z,39.50
2018-07-23T19:02:04.816Z,47.83
2018-07-23T19:04:32.963Z,35.90
2018-07-23T19:07:01.027Z,42.88
2018-07-23T19:09:29.769Z,54.10
2018-07-23T19:11:58.455Z,32.70
2018-07-23T19:14:26.499Z,29.90
2018-07-23T19:16:55.515Z,30.17
2018-07-23T19:19:23.576Z,42.60
2018-07-23T19:21:51.616Z,47.83
2018-07-23T19:24:19.648Z,48.13
2018-07-23T19:26:47.722Z,35.15
2018-07-23T19:29:15.787Z,34.90
2018-07-23T19:31:43.825Z,37.15
2018-07-23T19:34:11.888Z,24.65
2018-07-23T19:36:39.947Z,32.83
2018-07-23T19:39:09.369Z,24.30
2018-07-23T19:41:37.825Z,31.25
2018-07-23T19:44:06.287Z,23.52
2018-07-23T19:46:34.323Z,26.85
2018-07-23T19:49:02.391Z,26.80
2018-07-23T19:51:30.459Z,26.25
2018-07-23T19:53:58.510Z,30.12
2018-07-23T19:56:26.543Z,28.45
2018-07-23T19:58:54.575Z,24.85
2018-07-23T20:01:22.664Z,28.92
2018-07-23T20:03:50.715Z,38.35
2018-07-23T20:06:22.147Z,32.53
2018-07-23T20:08:50.955Z,31.30
2018-07-23T20:11:19.469Z,30.15
2018-07-23T20:13:47.487Z,39.18
2018-07-23T20:16:15.543Z,34.63
2018-07-23T20:18:43.576Z,33.85
2018-07-23T20:21:11.723Z,47.85
2018-07-23T20:23:39.834Z,36.25
2018-07-23T20:26:07.911Z,37.65
2018-07-23T20:28:36.604Z,36.15
2018-07-23T20:31:04.683Z,33.60
2018-07-23T20:33:32.929Z,29.72
2018-07-23T20:36:01.523Z,31.52
2018-07-23T20:38:29.604Z,28.27
2018-07-23T20:40:57.675Z,30.45
2018-07-23T20:43:26.379Z,14.65
2018-07-23T20:45:54.731Z,12.82
2018-07-23T20:48:22.733Z,18.37
2018-07-23T20:50:50.826Z,18.90
2018-07-23T20:53:18.895Z,22.00
2018-07-23T20:55:46.969Z,18.57
2018-07-23T20:58:15.035Z,16.10
2018-07-23T21:00:43.095Z,14.07
2018-07-23T21:03:11.191Z,15.00
2018-07-23T21:05:39.256Z,14.45
2018-07-23T21:08:07.307Z,14.45
2018-07-23T21:10:35.400Z,13.72
2018-07-23T21:13:03.493Z,17.27
2018-07-23T21:15:31.539Z,18.70
2018-07-23T21:17:59.596Z,20.12
2018-07-23T21:20:29.484Z,19.27
2018-07-23T21:22:57.582Z,25.08
2018-07-23T21:25:25.615Z,21.93
2018-07-23T21:27:53.745Z,18.07
2018-07-23T21:30:21.735Z,20.97
2018-07-23T21:32:49.805Z,21.23
2018-07-23T21:35:17.869Z,18.00
2018-07-23T21:37:45.917Z,27.30
2018-07-23T21:40:13.959Z,22.05
2018-07-23T21:42:42.023Z,22.42
2018-07-23T21:45:10.644Z,22.93
2018-07-23T21:47:38.780Z,22.52
2018-07-23T21:50:07.628Z,20.80
2018-07-23T21:52:35.804Z,15.70
2018-07-23T21:55:04.067Z,17.17
2018-07-23T21:57:32.127Z,18.12
2018-07-23T22:00:00.161Z,16.05
2018-07-23T22:02:28.215Z,15.18
2018-07-23T22:04:56.256Z,13.05
2018-07-23T22:07:24.436Z,15.38
2018-07-23T22:09:52.467Z,18.20
2018-07-23T22:12:20.543Z,14.50
2018-07-23T22:14:48.608Z,12.65
2018-07-23T22:17:16.684Z,16.27
2018-07-23T22:19:44.743Z,13.75
2018-07-23T22:22:12.796Z,17.62
2018-07-23T22:24:40.838Z,13.40
2018-07-23T22:27:08.960Z,17.77
2018-07-23T22:29:37.000Z,15.18
2018-07-23T22:32:05.107Z,18.85
2018-07-23T22:34:33.168Z,19.00
2018-07-23T22:37:01.240Z,18.12
2018-07-23T22:39:29.302Z,19.65
2018-07-23T22:41:57.404Z,17.52
2018-07-23T22:44:25.459Z,17.45
2018-07-23T22:46:53.497Z,14.10
2018-07-23T22:49:21.552Z,19.48
2018-07-23T22:51:49.595Z,17.85
2018-07-23T22:54:17.663Z,15.75
2018-07-23T22:56:45.709Z,14.60
2018-07-23T22:59:13.756Z,16.90
2018-07-23T23:01:41.827Z,16.57
2018-07-23T23:04:09.868Z,17.10
2018-07-23T23:06:37.916Z,18.90
2018-07-23T23:09:07.707Z,16.12
2018-07-23T23:11:35.741Z,13.53
2018-07-23T23:14:03.816Z,11.08
2018-07-23T23:16:31.879Z,13.15
2018-07-23T23:18:59.989Z,12.47
2018-07-23T23:21:28.027Z,17.17
2018-07-23T23:23:56.110Z,13.93
2018-07-23T23:26:24.168Z,11.08
2018-07-23T23:28:52.251Z,16.23
2018-07-23T23:31:20.339Z,13.68
2018-07-23T23:33:48.375Z,15.05
2018-07-23T23:36:16.439Z,11.55
2018-07-23T23:38:44.986Z,13.93
2018-07-23T23:41:13.031Z,16.17
2018-07-23T23:43:41.075Z,17.42
2018-07-23T23:46:09.149Z,16.37
2018-07-23T23:48:37.200Z,13.83
2018-07-23T23:51:05.243Z,13.45
2018-07-23T23:53:33.323Z,12.60
2018-07-23T23:56:01.411Z,13.62
2018-07-23T23:58:29.497Z,13.48
